createdAt,value
2018-10-16T00:01:52.416Z,13.5
2018-10-16T00:07:26.769Z,13.4
2018-10-16T00:12:55.381Z,13.3
2018-10-16T00:18:20.015Z,13.3
2018-10-16T00:23:53.854Z,13.2
2018-10-16T00:29:18.318Z,13.2
2018-10-16T00:34:52.777Z,13.1
2018-10-16T00:40:17.647Z,13.1
2018-10-16T00:45:46.021Z,13
2018-10-16T00:51:14.600Z,13
2018-10-16T00:56:43.174Z,12.9
2018-10-16T01:02:13.062Z,12.9
2018-10-16T01:07:41.593Z,12.8
2018-10-16T01:13:16.002Z,12.8
2018-10-16T01:18:39.509Z,12.7
2018-10-16T01:24:09.066Z,12.7
2018-10-16T01:29:38.196Z,12.7
2018-10-16T01:35:07.498Z,12.7
2018-10-16T01:40:35.818Z,12.7
2018-10-16T01:46:05.358Z,12.7
2018-10-16T01:51:40.231Z,12.7
2018-10-16T01:57:08.523Z,12.8
2018-10-16T02:02:32.383Z,12.8
2018-10-16T02:08:00.837Z,12.9
2018-10-16T02:13:30.608Z,12.9
2018-10-16T02:18:58.844Z,12.9
2018-10-16T02:24:28.428Z,12.9
2018-10-16T02:30:03.315Z,13
2018-10-16T02:35:27.137Z,13
2018-10-16T02:41:00.314Z,13
2018-10-16T02:46:24.789Z,13
2018-10-16T02:51:58.400Z,12.9
2018-10-16T02:57:28.275Z,12.9
2018-10-16T03:02:51.558Z,12.9
2018-10-16T03:08:21.389Z,12.8
2018-10-16T03:13:49.734Z,12.8
2018-10-16T03:19:24.321Z,12.8
2018-10-16T03:24:52.897Z,12.7
2018-10-16T03:30:17.677Z,12.7
2018-10-16T03:35:46.993Z,12.6
2018-10-16T03:41:15.553Z,12.6
2018-10-16T03:46:44.084Z,12.5
2018-10-16T03:52:17.659Z,12.5
2018-10-16T03:57:42.183Z,12.5
2018-10-16T04:03:10.761Z,12.4
2018-10-16T04:08:39.261Z,12.4
2018-10-16T04:14:12.854Z,12.3
2018-10-16T04:19:37.354Z,12.2
2018-10-16T04:25:06.893Z,12.2
2018-10-16T04:30:36.651Z,12.1
2018-10-16T04:36:04.916Z,12.1
2018-10-16T04:41:34.464Z,12.1
2018-10-16T04:47:03.862Z,12
2018-10-16T04:52:33.429Z,11.9
2018-10-16T04:58:07.877Z,11.9
2018-10-16T05:03:36.342Z,11.9
2018-10-16T05:09:05.841Z,11.9
2018-10-16T05:14:30.554Z,11.9
2018-10-16T05:19:58.860Z,11.9
2018-10-16T05:25:28.585Z,11.9
2018-10-16T05:31:03.193Z,11.9
2018-10-16T05:36:32.304Z,11.9
2018-10-16T05:41:56.807Z,11.9
2018-10-16T05:47:25.232Z,11.8
2018-10-16T05:52:53.984Z,11.8
2018-10-16T05:58:23.190Z,11.7
2018-10-16T06:03:52.670Z,11.7
2018-10-16T06:09:22.404Z,11.7
2018-10-16T06:14:50.631Z,11.7
2018-10-16T06:20:20.122Z,11.7
2018-10-16T06:25:47.581Z,11.7
2018-10-16T06:31:17.285Z,11.8
2018-10-16T06:36:50.793Z,11.8
2018-10-16T06:42:14.267Z,11.9
2018-10-16T06:47:43.549Z,12
2018-10-16T06:53:13.048Z,12.1
2018-10-16T06:58:46.810Z,12.2
2018-10-16T07:04:10.083Z,12.3
2018-10-16T07:09:38.628Z,12.5
2018-10-16T07:15:07.462Z,12.6
2018-10-16T07:20:35.713Z,12.8
2018-10-16T07:26:05.588Z,12.9
2018-10-16T07:31:38.938Z,13.1
2018-10-16T07:37:07.784Z,13.3
2018-10-16T07:42:31.135Z,13.5
2018-10-16T07:48:04.994Z,13.6
2018-10-16T07:53:28.377Z,13.7
2018-10-16T07:58:57.995Z,13.8
2018-10-16T08:04:26.616Z,13.9
2018-10-16T08:09:55.263Z,14
2018-10-16T08:15:23.943Z,14
2018-10-16T08:20:52.857Z,14.1
2018-10-16T08:26:22.065Z,14.1
2018-10-16T08:31:49.898Z,14.2
2018-10-16T08:37:18.999Z,14.3
2018-10-16T08:42:52.328Z,14.4
2018-10-16T08:48:16.924Z,14.4
2018-10-16T08:53:46.610Z,14.5
2018-10-16T08:59:16.353Z,14.6
2018-10-16T09:04:45.055Z,14.7
2018-10-16T09:10:13.755Z,14.8
2018-10-16T09:15:42.501Z,14.9
2018-10-16T09:21:16.232Z,15
2018-10-16T09:26:40.082Z,15
2018-10-16T09:32:09.752Z,15.1
2018-10-16T09:37:38.568Z,15.2
2018-10-16T09:43:07.582Z,15.3
2018-10-16T09:48:42.340Z,15.4
2018-10-16T09:54:06.870Z,15.6
2018-10-16T09:59:36.951Z,15.7
2018-10-16T10:05:05.530Z,15.8
2018-10-16T10:10:39.347Z,15.9
2018-10-16T10:16:03.185Z,15.9
2018-10-16T10:21:32.040Z,16
2018-10-16T10:27:02.099Z,16
2018-10-16T10:32:30.758Z,15.9
2018-10-16T10:38:00.537Z,15.8
2018-10-16T10:43:29.579Z,15.8
2018-10-16T10:48:59.161Z,16
2018-10-16T10:54:29.018Z,16.2
2018-10-16T10:59:58.921Z,16.4
2018-10-16T11:05:27.828Z,16.5
2018-10-16T11:10:56.751Z,16.5
2018-10-16T11:16:25.668Z,16.6
2018-10-16T11:21:54.518Z,16.8
2018-10-16T11:27:23.713Z,16.9
2018-10-16T11:32:53.390Z,16.9
2018-10-16T11:38:27.725Z,16.9
2018-10-16T11:43:51.241Z,16.8
2018-10-16T11:49:20.227Z,16.8
2018-10-16T11:54:50.187Z,16.8
2018-10-16T12:00:19.041Z,16.8
2018-10-16T12:05:47.930Z,16.7
2018-10-16T12:11:18.199Z,16.7
2018-10-16T12:16:47.034Z,16.7
2018-10-16T12:22:15.730Z,16.7
2018-10-16T12:27:50.664Z,16.7
2018-10-16T12:33:14.661Z,16.6
2018-10-16T12:38:44.425Z,16.6
2018-10-16T12:44:18.447Z,16.6
2018-10-16T12:49:42.354Z,16.6
2018-10-16T12:55:11.197Z,16.6
2018-10-16T13:00:40.309Z,16.6
2018-10-16T13:06:08.965Z,16.6
2018-10-16T13:11:38.940Z,16.6
2018-10-16T13:17:13.843Z,16.6
2018-10-16T13:22:38.723Z,16.7
2018-10-16T13:28:08.031Z,16.8
2018-10-16T13:33:42.561Z,16.8
2018-10-16T13:39:12.490Z,16.8
2018-10-16T13:44:37.411Z,16.8
2018-10-16T13:50:06.375Z,16.8
2018-10-16T13:55:36.261Z,16.8
2018-10-16T14:01:05.232Z,16.8
2018-10-16T14:06:34.368Z,16.7
2018-10-16T14:12:03.991Z,16.7
2018-10-16T14:17:33.910Z,16.7
2018-10-16T14:23:07.821Z,16.7
2018-10-16T14:28:31.740Z,16.7
2018-10-16T14:34:00.784Z,16.7
2018-10-16T14:39:29.921Z,16.7
2018-10-16T14:45:03.776Z,16.7
2018-10-16T14:50:29.187Z,16.6
2018-10-16T14:55:57.363Z,16.6
2018-10-16T15:01:26.584Z,16.5
2018-10-16T15:06:55.128Z,16.5
2018-10-16T15:12:24.021Z,16.4
2018-10-16T15:17:53.142Z,16.4
2018-10-16T15:23:26.875Z,16.3
2018-10-16T15:28:50.626Z,16.2
2018-10-16T15:34:24.510Z,16.1
2018-10-16T15:39:48.370Z,16
2018-10-16T15:45:17.492Z,15.9
2018-10-16T15:50:46.043Z,15.8
2018-10-16T15:56:20.841Z,15.7
2018-10-16T16:01:44.881Z,15.6
2018-10-16T16:07:13.415Z,15.5
2018-10-16T16:12:42.605Z,15.4
2018-10-16T16:18:11.110Z,15.3
2018-10-16T16:23:44.793Z,15.2
2018-10-16T16:29:13.530Z,15.1
2018-10-16T16:34:42.243Z,15
2018-10-16T16:40:12.087Z,14.9
2018-10-16T16:45:35.699Z,14.8
2018-10-16T16:45:43.006Z,14.8
2018-10-16T16:51:04.431Z,14.7
2018-10-16T16:56:34.211Z,14.6
2018-10-16T17:02:03.941Z,14.6
2018-10-16T17:07:34.026Z,14.5
2018-10-16T17:13:02.439Z,14.4
2018-10-16T17:18:35.886Z,14.3
2018-10-16T17:24:05.793Z,14.2
2018-10-16T17:29:30.590Z,14.1
2018-10-16T17:34:59.784Z,14.1
2018-10-16T17:40:28.768Z,14
2018-10-16T17:45:58.481Z,14
2018-10-16T17:51:27.722Z,13.9
2018-10-16T17:56:56.379Z,13.9
2018-10-16T18:02:24.959Z,13.8
2018-10-16T18:07:54.577Z,13.7
2018-10-16T18:13:28.187Z,13.7
2018-10-16T18:18:52.884Z,13.6
2018-10-16T18:24:27.445Z,13.6
2018-10-16T18:29:52.308Z,13.5
2018-10-16T18:35:20.646Z,13.4
2018-10-16T18:40:49.264Z,13.4
2018-10-16T18:46:17.860Z,13.4
2018-10-16T18:51:46.432Z,13.4
2018-10-16T18:57:20.626Z,13.4
2018-10-16T19:02:48.743Z,13.4
2018-10-16T19:08:12.274Z,13.4
2018-10-16T19:13:44.749Z,13.4
2018-10-16T19:19:14.493Z,13.4
2018-10-16T19:24:38.336Z,13.3
2018-10-16T19:30:06.698Z,13.3
2018-10-16T19:35:35.554Z,13.2
2018-10-16T19:41:04.857Z,13.2
2018-10-16T19:46:33.742Z,13.1
2018-10-16T19:52:03.311Z,13.1
2018-10-16T19:57:32.626Z,13.1
2018-10-16T20:03:02.223Z,13
2018-10-16T20:08:31.093Z,13
2018-10-16T20:14:00.409Z,13
2018-10-16T20:19:29.933Z,13
2018-10-16T20:19:31.730Z,13
2018-10-16T20:25:04.571Z,13
2018-10-16T20:30:29.312Z,13
2018-10-16T20:35:58.908Z,13
2018-10-16T20:41:32.801Z,12.9
2018-10-16T20:46:55.774Z,12.9
2018-10-16T20:52:25.623Z,12.9
2018-10-16T20:57:54.195Z,12.8
2018-10-16T21:03:28.493Z,12.8
2018-10-16T21:08:52.715Z,12.8
2018-10-16T21:14:21.593Z,12.8
2018-10-16T21:19:50.194Z,12.7
2018-10-16T21:25:19.894Z,12.7
2018-10-16T21:30:54.805Z,12.7
2018-10-16T21:36:18.756Z,12.7
2018-10-16T21:41:48.695Z,12.7
2018-10-16T21:47:17.283Z,12.7
2018-10-16T21:52:45.386Z,12.7
2018-10-16T21:58:13.970Z,12.6
2018-10-16T22:03:43.722Z,12.6
2018-10-16T22:09:12.993Z,12.6
2018-10-16T22:14:47.863Z,12.6
2018-10-16T22:20:11.065Z,12.6
2018-10-16T22:25:39.839Z,12.6
2018-10-16T22:31:08.185Z,12.6
2018-10-16T22:36:36.923Z,12.6
2018-10-16T22:42:05.470Z,12.6
2018-10-16T22:47:34.681Z,12.6
2018-10-16T22:53:08.562Z,12.6
2018-10-16T22:58:37.051Z,12.5
2018-10-16T23:04:01.551Z,12.5
2018-10-16T23:09:34.801Z,12.5
2018-10-16T23:14:58.615Z,12.4
2018-10-16T23:20:26.864Z,12.4
2018-10-16T23:25:55.575Z,12.4
2018-10-16T23:31:29.334Z,12.4
2018-10-16T23:36:53.335Z,12.3
2018-10-16T23:42:22.163Z,12.3
2018-10-16T23:47:50.331Z,12.3
2018-10-16T23:53:19.810Z,12.2
2018-10-16T23:58:48.614Z,12.2
